createdAt,value
2018-05-10T00:00:26.432Z,20.30
2018-05-10T00:01:03.799Z,20.30
2018-05-10T00:01:41.191Z,20.30
2018-05-10T00:02:18.439Z,20.20
2018-05-10T00:02:56.506Z,20.20
2018-05-10T00:03:33.931Z,20.20
2018-05-10T00:04:11.154Z,20.20
2018-05-10T00:04:48.408Z,20.20
2018-05-10T00:05:26.564Z,20.20
2018-05-10T00:06:04.541Z,20.20
2018-05-10T00:06:41.718Z,20.20
2018-05-10T00:07:18.948Z,20.20
2018-05-10T00:07:57.150Z,20.20
2018-05-10T00:08:34.318Z,20.20
2018-05-10T00:09:11.725Z,20.20
2018-05-10T00:09:48.960Z,20.10
2018-05-10T00:10:26.342Z,20.10
2018-05-10T00:11:04.558Z,20.10
2018-05-10T00:11:41.946Z,20.10
2018-05-10T00:12:19.396Z,20.10
2018-05-10T00:12:56.770Z,20.20
2018-05-10T00:13:33.953Z,20.10
2018-05-10T00:14:11.389Z,20.20
2018-05-10T00:14:48.799Z,20.20
2018-05-10T00:15:26.237Z,20.20
2018-05-10T00:16:03.724Z,20.20
2018-05-10T00:16:41.135Z,20.20
2018-05-10T00:17:18.327Z,20.20
2018-05-10T00:17:55.611Z,20.30
2018-05-10T00:18:33.009Z,20.30
2018-05-10T00:19:10.251Z,20.30
2018-05-10T00:19:47.710Z,20.30
2018-05-10T00:20:25.158Z,20.30
2018-05-10T00:21:02.525Z,20.30
2018-05-10T00:21:40.568Z,20.30
2018-05-10T00:22:18.030Z,20.30
2018-05-10T00:22:55.990Z,20.30
2018-05-10T00:23:33.237Z,20.20
2018-05-10T00:24:10.706Z,20.30
2018-05-10T00:24:48.899Z,20.20
2018-05-10T00:25:27.113Z,20.20
2018-05-10T00:26:04.402Z,20.20
2018-05-10T00:26:42.555Z,20.20
2018-05-10T00:27:20.831Z,20.30
2018-05-10T00:27:58.221Z,20.20
2018-05-10T00:28:35.511Z,20.30
2018-05-10T00:29:12.832Z,20.30
2018-05-10T00:29:50.813Z,20.20
2018-05-10T00:30:28.227Z,20.20
2018-05-10T00:31:05.423Z,20.20
2018-05-10T00:31:43.607Z,20.20
2018-05-10T00:32:21.810Z,20.20
2018-05-10T00:32:58.945Z,20.20
2018-05-10T00:33:36.259Z,20.20
2018-05-10T00:34:13.627Z,20.20
2018-05-10T00:34:51.074Z,20.20
2018-05-10T00:35:29.012Z,20.20
2018-05-10T00:36:06.378Z,20.20
2018-05-10T00:36:44.482Z,20.20
2018-05-10T00:37:21.769Z,20.20
2018-05-10T00:37:59.019Z,20.20
2018-05-10T00:38:36.530Z,20.20
2018-05-10T00:39:14.698Z,20.20
2018-05-10T00:39:52.174Z,20.20
2018-05-10T00:40:29.365Z,20.20
2018-05-10T00:41:06.883Z,20.20
2018-05-10T00:41:44.086Z,20.20
2018-05-10T00:42:21.458Z,20.20
2018-05-10T00:42:59.011Z,20.20
2018-05-10T00:43:36.451Z,20.20
2018-05-10T00:44:13.833Z,20.20
2018-05-10T00:44:51.148Z,20.20
2018-05-10T00:45:29.256Z,20.20
2018-05-10T00:46:07.478Z,20.20
2018-05-10T00:46:44.669Z,20.20
2018-05-10T00:47:22.019Z,20.20
2018-05-10T00:47:59.515Z,20.20
2018-05-10T00:48:37.593Z,20.20
2018-05-10T00:49:15.576Z,20.20
2018-05-10T00:49:52.810Z,20.20
2018-05-10T00:50:30.172Z,20.20
2018-05-10T00:51:07.637Z,20.20
2018-05-10T00:51:44.717Z,20.10
2018-05-10T00:52:22.893Z,20.10
2018-05-10T00:53:00.262Z,20.10
2018-05-10T00:53:38.465Z,20.10
2018-05-10T00:54:15.653Z,20.10
2018-05-10T00:54:53.851Z,20.10
2018-05-10T00:55:32.069Z,20.10
2018-05-10T00:56:09.382Z,20.10
2018-05-10T00:56:47.584Z,20.10
2018-05-10T00:57:25.790Z,20.00
2018-05-10T00:58:03.053Z,20.00
2018-05-10T00:58:40.436Z,20.00
2018-05-10T00:59:17.810Z,20.00
2018-05-10T00:59:56.005Z,20.00
2018-05-10T01:00:34.187Z,20.00
2018-05-10T01:01:11.514Z,20.00
2018-05-10T01:01:48.717Z,20.10
2018-05-10T01:02:25.995Z,20.00
2018-05-10T01:03:03.326Z,20.10
2018-05-10T01:03:41.519Z,20.20
2018-05-10T01:04:18.826Z,20.20
2018-05-10T01:04:56.884Z,20.20
2018-05-10T01:05:34.211Z,20.20
2018-05-10T01:06:12.463Z,20.20
2018-05-10T01:06:49.714Z,20.20
2018-05-10T01:07:26.965Z,20.20
2018-05-10T01:08:05.214Z,20.20
2018-05-10T01:08:42.429Z,20.20
2018-05-10T01:09:19.886Z,20.20
2018-05-10T01:09:57.976Z,20.20
2018-05-10T01:10:35.146Z,20.20
2018-05-10T01:11:12.446Z,20.20
2018-05-10T01:11:50.565Z,20.30
2018-05-10T01:12:27.867Z,20.30
2018-05-10T01:13:05.062Z,20.30
2018-05-10T01:13:43.026Z,20.30
2018-05-10T01:14:21.003Z,20.30
2018-05-10T01:14:58.335Z,20.20
2018-05-10T01:15:35.730Z,20.30
2018-05-10T01:16:13.939Z,20.20
2018-05-10T01:16:51.182Z,20.20
2018-05-10T01:17:28.497Z,20.30
2018-05-10T01:18:05.843Z,20.20
2018-05-10T01:18:42.990Z,20.20
2018-05-10T01:19:20.462Z,20.30
2018-05-10T01:19:57.942Z,20.30
2018-05-10T01:20:35.168Z,20.30
2018-05-10T01:21:13.256Z,20.30
2018-05-10T01:21:50.575Z,20.30
2018-05-10T01:22:27.874Z,20.30
2018-05-10T01:23:05.347Z,20.30
2018-05-10T01:23:43.431Z,20.40
2018-05-10T01:24:21.621Z,20.30
2018-05-10T01:24:59.001Z,20.30
2018-05-10T01:25:36.172Z,20.30
2018-05-10T01:26:13.509Z,20.30
2018-05-10T01:26:51.640Z,20.40
2018-05-10T01:27:28.985Z,20.40
2018-05-10T01:28:06.155Z,20.40
2018-05-10T01:28:43.457Z,20.30
2018-05-10T01:29:21.642Z,20.40
2018-05-10T01:29:59.056Z,20.40
2018-05-10T01:30:36.217Z,20.40
2018-05-10T01:31:13.649Z,20.40
2018-05-10T01:31:51.556Z,20.40
2018-05-10T01:32:29.004Z,20.40
2018-05-10T01:33:06.356Z,20.40
2018-05-10T01:33:44.560Z,20.40
2018-05-10T01:34:21.733Z,20.40
2018-05-10T01:34:59.827Z,20.40
2018-05-10T01:35:37.263Z,20.40
2018-05-10T01:36:14.694Z,20.40
2018-05-10T01:36:51.943Z,20.40
2018-05-10T01:37:29.963Z,20.40
2018-05-10T01:38:07.243Z,20.40
2018-05-10T01:38:45.370Z,20.40
2018-05-10T01:39:22.734Z,20.30
2018-05-10T01:40:00.097Z,20.30
2018-05-10T01:40:37.591Z,20.30
2018-05-10T01:41:14.791Z,20.30
2018-05-10T01:41:52.138Z,20.30
2018-05-10T01:42:29.525Z,20.30
2018-05-10T01:43:06.991Z,20.30
2018-05-10T01:43:44.138Z,20.30
2018-05-10T01:44:21.588Z,20.30
2018-05-10T01:44:58.954Z,20.40
2018-05-10T01:45:36.970Z,20.40
2018-05-10T01:46:14.176Z,20.40
2018-05-10T01:46:51.568Z,20.40
2018-05-10T01:47:28.829Z,20.30
2018-05-10T01:48:06.074Z,20.30
2018-05-10T01:48:43.482Z,20.30
2018-05-10T01:49:20.945Z,20.30
2018-05-10T01:49:59.187Z,20.30
2018-05-10T01:50:37.237Z,20.30
2018-05-10T01:51:15.274Z,20.30
2018-05-10T01:51:52.638Z,20.30
2018-05-10T01:52:30.759Z,20.30
2018-05-10T01:53:07.973Z,20.30
2018-05-10T01:53:45.347Z,20.30
2018-05-10T01:54:22.800Z,20.30
2018-05-10T01:55:00.067Z,20.30
2018-05-10T01:55:38.010Z,20.30
2018-05-10T01:56:16.203Z,20.30
2018-05-10T01:56:53.647Z,20.30
2018-05-10T01:57:30.842Z,20.30
2018-05-10T01:58:08.009Z,20.40
2018-05-10T01:58:45.421Z,20.40
2018-05-10T01:59:22.579Z,20.40
2018-05-10T01:59:59.853Z,20.40
2018-05-10T02:00:37.128Z,20.40
2018-05-10T02:01:14.510Z,20.40
2018-05-10T02:01:51.946Z,20.40
2018-05-10T02:02:29.179Z,20.30
2018-05-10T02:03:06.630Z,20.30
2018-05-10T02:03:44.054Z,20.30
2018-05-10T02:04:21.371Z,20.30
2018-05-10T02:04:58.764Z,20.40
2018-05-10T02:05:35.910Z,20.40
2018-05-10T02:06:13.330Z,20.40
2018-05-10T02:06:50.611Z,20.40
2018-05-10T02:07:27.913Z,20.40
2018-05-10T02:08:05.323Z,20.40
2018-05-10T02:08:42.735Z,20.40
2018-05-10T02:09:20.146Z,20.40
2018-05-10T02:09:57.598Z,20.40
2018-05-10T02:10:35.763Z,20.30
2018-05-10T02:11:13.147Z,20.40
2018-05-10T02:11:50.516Z,20.30
2018-05-10T02:12:27.886Z,20.30
2018-05-10T02:13:05.906Z,20.20
2018-05-10T02:13:43.082Z,20.20
2018-05-10T02:14:21.302Z,20.10
2018-05-10T02:14:58.521Z,20.20
2018-05-10T02:15:35.909Z,20.20
2018-05-10T02:16:13.238Z,20.10
2018-05-10T02:16:50.535Z,20.20
2018-05-10T02:17:28.547Z,20.10
2018-05-10T02:18:06.015Z,20.10
2018-05-10T02:18:44.049Z,20.10
2018-05-10T02:19:21.272Z,20.10
2018-05-10T02:19:58.446Z,20.10
2018-05-10T02:20:36.655Z,20.20
2018-05-10T02:21:14.029Z,20.10
2018-05-10T02:21:51.246Z,20.20
2018-05-10T02:22:29.422Z,20.20
2018-05-10T02:23:06.785Z,20.10
2018-05-10T02:23:44.993Z,20.20
2018-05-10T02:24:22.400Z,20.20
2018-05-10T02:24:59.630Z,20.20
2018-05-10T02:25:37.742Z,20.20
2018-05-10T02:26:15.062Z,20.20
2018-05-10T02:26:52.333Z,20.20
2018-05-10T02:27:29.811Z,20.20
2018-05-10T02:28:07.828Z,20.30
2018-05-10T02:28:45.246Z,20.30
2018-05-10T02:29:23.435Z,20.30
2018-05-10T02:30:00.613Z,20.30
2018-05-10T02:30:38.047Z,20.30
2018-05-10T02:31:15.519Z,20.30
2018-05-10T02:31:52.958Z,20.30
2018-05-10T02:32:31.002Z,20.30
2018-05-10T02:33:08.197Z,20.30
2018-05-10T02:33:46.392Z,20.30
2018-05-10T02:34:23.763Z,20.30
2018-05-10T02:35:01.129Z,20.30
2018-05-10T02:35:39.310Z,20.20
2018-05-10T02:36:16.494Z,20.20
2018-05-10T02:36:54.485Z,20.30
2018-05-10T02:37:32.539Z,20.30
2018-05-10T02:38:09.844Z,20.20
2018-05-10T02:38:47.238Z,20.30
2018-05-10T02:39:24.638Z,20.30
2018-05-10T02:40:02.038Z,20.30
2018-05-10T02:40:39.471Z,20.30
2018-05-10T02:41:16.915Z,20.30
2018-05-10T02:41:54.870Z,20.30
2018-05-10T02:42:32.224Z,20.30
2018-05-10T02:43:09.533Z,20.30
2018-05-10T02:43:46.905Z,20.30
2018-05-10T02:44:25.075Z,20.30
2018-05-10T02:45:03.166Z,20.30
2018-05-10T02:45:40.482Z,20.30
2018-05-10T02:46:17.964Z,20.20
2018-05-10T02:46:56.145Z,20.20
2018-05-10T02:47:33.275Z,20.20
2018-05-10T02:48:11.501Z,20.20
2018-05-10T02:48:49.592Z,20.10
2018-05-10T02:49:27.022Z,20.10
2018-05-10T02:50:04.198Z,20.10
2018-05-10T02:50:41.393Z,20.10
2018-05-10T02:51:18.646Z,20.10
2018-05-10T02:51:56.032Z,20.10
2018-05-10T02:52:34.257Z,20.10
2018-05-10T02:53:11.636Z,20.10
2018-05-10T02:53:49.023Z,20.20
2018-05-10T02:54:26.387Z,20.20
2018-05-10T02:55:03.630Z,20.20
2018-05-10T02:55:41.025Z,20.20
2018-05-10T02:56:18.397Z,20.20
2018-05-10T02:56:55.876Z,20.20
2018-05-10T02:57:33.263Z,20.20
2018-05-10T02:58:11.446Z,20.30
2018-05-10T02:58:48.868Z,20.30
2018-05-10T02:59:26.243Z,20.30
2018-05-10T03:00:03.633Z,20.30
2018-05-10T03:00:40.913Z,20.30
2018-05-10T03:01:18.303Z,20.30
2018-05-10T03:01:55.868Z,20.30
2018-05-10T03:02:33.919Z,20.30
2018-05-10T03:03:12.015Z,20.30
2018-05-10T03:03:49.413Z,20.30
2018-05-10T03:04:26.840Z,20.40
2018-05-10T03:05:04.251Z,20.40
2018-05-10T03:05:42.425Z,20.30
2018-05-10T03:06:19.799Z,20.30
2018-05-10T03:06:57.022Z,20.30
2018-05-10T03:07:35.169Z,20.30
2018-05-10T03:08:12.562Z,20.30
2018-05-10T03:08:50.059Z,20.30
2018-05-10T03:09:27.503Z,20.30
2018-05-10T03:10:05.666Z,20.30
2018-05-10T03:10:43.026Z,20.30
2018-05-10T03:11:21.258Z,20.30
2018-05-10T03:11:58.474Z,20.30
2018-05-10T03:12:35.902Z,20.30
2018-05-10T03:13:13.150Z,20.30
2018-05-10T03:13:51.226Z,20.40
2018-05-10T03:14:29.466Z,20.30
2018-05-10T03:15:06.816Z,20.30
2018-05-10T03:15:44.001Z,20.30
2018-05-10T03:16:22.207Z,20.30
2018-05-10T03:16:59.508Z,20.30
2018-05-10T03:17:37.648Z,20.40
2018-05-10T03:18:15.082Z,20.40
2018-05-10T03:18:53.228Z,20.30
2018-05-10T03:19:30.527Z,20.30
2018-05-10T03:20:08.691Z,20.30
2018-05-10T03:20:46.012Z,20.30
2018-05-10T03:21:24.152Z,20.30
2018-05-10T03:22:02.354Z,20.30
2018-05-10T03:22:39.533Z,20.30
2018-05-10T03:23:17.031Z,20.30
2018-05-10T03:23:54.327Z,20.30
2018-05-10T03:24:31.673Z,20.30
2018-05-10T03:25:09.810Z,20.30
2018-05-10T03:25:47.230Z,20.30
2018-05-10T03:26:25.411Z,20.30
2018-05-10T03:27:02.814Z,20.30
2018-05-10T03:27:40.789Z,20.30
2018-05-10T03:28:18.195Z,20.30
2018-05-10T03:28:56.364Z,20.30
2018-05-10T03:29:33.759Z,20.30
2018-05-10T03:30:11.158Z,20.30
2018-05-10T03:30:48.563Z,20.30
2018-05-10T03:31:26.602Z,20.30
2018-05-10T03:32:04.673Z,20.30
2018-05-10T03:32:42.076Z,20.30
2018-05-10T03:33:19.403Z,20.30
2018-05-10T03:33:57.510Z,20.30
2018-05-10T03:34:34.690Z,20.20
2018-05-10T03:35:12.891Z,20.30
2018-05-10T03:35:50.151Z,20.30
2018-05-10T03:36:27.299Z,20.30
2018-05-10T03:37:04.640Z,20.30
2018-05-10T03:37:42.799Z,20.20
2018-05-10T03:38:20.162Z,20.20
2018-05-10T03:38:57.458Z,20.20
2018-05-10T03:39:35.681Z,20.20
2018-05-10T03:40:13.113Z,20.20
2018-05-10T03:40:51.227Z,20.20
2018-05-10T03:41:29.423Z,20.20
2018-05-10T03:42:06.701Z,20.20
2018-05-10T03:42:43.825Z,20.20
2018-05-10T03:43:21.263Z,20.20
2018-05-10T03:43:58.589Z,20.30
2018-05-10T03:44:36.822Z,20.30
2018-05-10T03:45:14.236Z,20.30
2018-05-10T03:45:51.382Z,20.30
2018-05-10T03:46:28.830Z,20.30
2018-05-10T03:47:06.999Z,20.30
2018-05-10T03:47:44.996Z,20.30
2018-05-10T03:48:22.322Z,20.20
2018-05-10T03:49:00.556Z,20.20
2018-05-10T03:49:37.929Z,20.20
2018-05-10T03:50:15.397Z,20.20
2018-05-10T03:50:53.428Z,20.20
2018-05-10T03:51:30.689Z,20.20
2018-05-10T03:52:08.893Z,20.20
2018-05-10T03:52:46.209Z,20.20
2018-05-10T03:53:24.335Z,20.20
2018-05-10T03:54:01.533Z,20.20
2018-05-10T03:54:38.955Z,20.20
2018-05-10T03:55:16.972Z,20.10
2018-05-10T03:55:54.418Z,20.10
2018-05-10T03:56:31.809Z,20.20
2018-05-10T03:57:09.283Z,20.20
2018-05-10T03:57:46.655Z,20.10
2018-05-10T03:58:24.072Z,20.10
2018-05-10T03:59:01.286Z,20.10
2018-05-10T03:59:38.462Z,20.00
2018-05-10T04:00:15.935Z,20.00
2018-05-10T04:00:53.239Z,20.00
2018-05-10T04:01:30.495Z,20.10
2018-05-10T04:02:08.100Z,20.00
2018-05-10T04:02:45.368Z,20.00
2018-05-10T04:03:22.815Z,19.90
2018-05-10T04:04:00.294Z,19.90
2018-05-10T04:04:38.416Z,19.90
2018-05-10T04:05:15.849Z,19.90
2018-05-10T04:05:53.994Z,19.80
2018-05-10T04:06:31.353Z,19.80
2018-05-10T04:07:09.823Z,19.70
2018-05-10T04:07:47.114Z,19.80
2018-05-10T04:08:24.434Z,19.70
2018-05-10T04:09:01.866Z,19.70
2018-05-10T04:09:39.780Z,19.80
2018-05-10T04:10:17.149Z,19.70
2018-05-10T04:10:54.559Z,19.70
2018-05-10T04:11:32.626Z,19.70
2018-05-10T04:12:10.630Z,19.70
2018-05-10T04:12:47.928Z,19.60
2018-05-10T04:13:25.423Z,19.60
2018-05-10T04:14:03.358Z,19.60
2018-05-10T04:14:40.788Z,19.60
2018-05-10T04:15:18.728Z,19.60
2018-05-10T04:15:56.126Z,19.60
2018-05-10T04:16:33.361Z,19.60
2018-05-10T04:17:10.704Z,19.60
2018-05-10T04:17:47.889Z,19.60
2018-05-10T04:18:25.226Z,19.70
2018-05-10T04:19:03.196Z,19.60
2018-05-10T04:19:40.653Z,19.70
2018-05-10T04:20:18.692Z,19.60
2018-05-10T04:20:55.990Z,19.70
2018-05-10T04:21:33.177Z,19.70
2018-05-10T04:22:10.706Z,19.70
2018-05-10T04:22:48.683Z,19.70
2018-05-10T04:23:26.059Z,19.70
2018-05-10T04:24:03.458Z,19.70
2018-05-10T04:24:40.857Z,19.70
2018-05-10T04:25:18.012Z,19.70
2018-05-10T04:25:55.289Z,19.70
2018-05-10T04:26:33.446Z,19.70
2018-05-10T04:27:10.664Z,19.70
2018-05-10T04:27:47.971Z,19.80
2018-05-10T04:28:25.889Z,19.90
2018-05-10T04:29:03.238Z,19.80
2018-05-10T04:29:40.471Z,19.90
2018-05-10T04:30:18.630Z,19.90
2018-05-10T04:30:56.066Z,19.90
2018-05-10T04:31:33.282Z,19.90
2018-05-10T04:32:10.570Z,20.00
2018-05-10T04:32:48.552Z,20.00
2018-05-10T04:33:25.899Z,19.90
2018-05-10T04:34:03.330Z,20.00
2018-05-10T04:34:41.296Z,19.90
2018-05-10T04:35:18.576Z,19.80
2018-05-10T04:35:56.013Z,19.90
2018-05-10T04:36:33.306Z,20.00
2018-05-10T04:37:10.724Z,20.00
2018-05-10T04:37:48.070Z,20.00
2018-05-10T04:38:25.351Z,20.00
2018-05-10T04:39:03.347Z,20.00
2018-05-10T04:39:40.515Z,19.90
2018-05-10T04:40:17.864Z,20.00
2018-05-10T04:40:55.991Z,19.90
2018-05-10T04:41:34.173Z,19.90
2018-05-10T04:42:12.460Z,20.00
2018-05-10T04:42:50.571Z,19.90
2018-05-10T04:43:28.015Z,19.90
2018-05-10T04:44:05.270Z,19.90
2018-05-10T04:44:42.461Z,20.00
2018-05-10T04:45:19.617Z,20.00
2018-05-10T04:45:56.847Z,20.00
2018-05-10T04:46:34.211Z,20.00
2018-05-10T04:47:11.630Z,20.00
2018-05-10T04:47:49.001Z,20.00
2018-05-10T04:48:26.397Z,20.00
2018-05-10T04:49:03.631Z,20.00
2018-05-10T04:49:40.956Z,20.00
2018-05-10T04:50:18.264Z,20.00
2018-05-10T04:50:55.719Z,20.00
2018-05-10T04:51:32.975Z,20.00
2018-05-10T04:52:11.176Z,20.00
2018-05-10T04:52:48.538Z,20.00
2018-05-10T04:53:25.840Z,20.00
2018-05-10T04:54:03.192Z,20.00
2018-05-10T04:54:40.385Z,20.00
2018-05-10T04:55:17.727Z,20.00
2018-05-10T04:55:55.922Z,20.00
2018-05-10T04:56:33.142Z,20.00
2018-05-10T04:57:11.255Z,20.00
2018-05-10T04:57:48.690Z,20.00
2018-05-10T04:58:26.033Z,20.00
2018-05-10T04:59:04.125Z,20.00
2018-05-10T04:59:41.434Z,20.00
2018-05-10T05:00:18.620Z,20.00
2018-05-10T05:00:56.757Z,19.90
2018-05-10T05:01:34.171Z,19.90
2018-05-10T05:02:12.319Z,19.90
2018-05-10T05:02:50.524Z,19.90
2018-05-10T05:03:28.752Z,19.80
2018-05-10T05:04:06.212Z,19.90
2018-05-10T05:04:44.323Z,19.90
2018-05-10T05:05:21.523Z,19.90
2018-05-10T05:05:58.795Z,19.90
2018-05-10T05:06:35.938Z,19.80
2018-05-10T05:07:13.378Z,19.90
2018-05-10T05:07:51.613Z,19.90
2018-05-10T05:08:28.891Z,19.90
2018-05-10T05:09:07.131Z,19.80
2018-05-10T05:09:44.490Z,19.80
2018-05-10T05:10:21.953Z,19.80
2018-05-10T05:10:59.357Z,19.70
2018-05-10T05:11:37.475Z,19.70
2018-05-10T05:12:14.849Z,19.70
2018-05-10T05:12:52.856Z,19.70
2018-05-10T05:13:30.848Z,19.70
2018-05-10T05:14:08.278Z,19.70
2018-05-10T05:14:46.429Z,19.70
2018-05-10T05:15:24.635Z,19.70
2018-05-10T05:16:01.994Z,19.60
2018-05-10T05:16:39.366Z,19.70
2018-05-10T05:17:17.562Z,19.70
2018-05-10T05:17:54.789Z,19.70
2018-05-10T05:18:32.195Z,19.60
2018-05-10T05:19:09.392Z,19.60
2018-05-10T05:19:47.437Z,19.60
2018-05-10T05:20:24.726Z,19.60
2018-05-10T05:21:02.119Z,19.60
2018-05-10T05:21:40.303Z,19.60
2018-05-10T05:22:18.407Z,19.60
2018-05-10T05:22:55.652Z,19.60
2018-05-10T05:23:33.884Z,19.60
2018-05-10T05:24:12.024Z,19.60
2018-05-10T05:24:50.021Z,19.70
2018-05-10T05:25:28.191Z,19.70
2018-05-10T05:26:05.586Z,19.70
2018-05-10T05:26:42.814Z,19.70
2018-05-10T05:27:20.937Z,19.70
2018-05-10T05:27:59.184Z,19.70
2018-05-10T05:28:36.486Z,19.70
2018-05-10T05:29:13.793Z,19.70
2018-05-10T05:29:51.024Z,19.70
2018-05-10T05:30:29.225Z,19.70
2018-05-10T05:31:06.425Z,19.70
2018-05-10T05:31:43.795Z,19.80
2018-05-10T05:32:22.018Z,19.80
2018-05-10T05:32:59.309Z,19.80
2018-05-10T05:33:37.374Z,19.90
2018-05-10T05:34:14.674Z,19.90
2018-05-10T05:34:51.938Z,19.90
2018-05-10T05:35:29.287Z,19.90
2018-05-10T05:36:07.437Z,20.00
2018-05-10T05:36:44.631Z,20.00
2018-05-10T05:37:22.008Z,20.10
2018-05-10T05:37:59.199Z,20.10
2018-05-10T05:38:36.367Z,20.10
2018-05-10T05:39:13.666Z,20.10
2018-05-10T05:39:50.909Z,20.20
2018-05-10T05:40:28.317Z,20.20
2018-05-10T05:41:50.964Z,20.20
2018-05-10T05:42:28.371Z,20.20
2018-05-10T05:43:05.812Z,20.20
2018-05-10T05:43:43.171Z,20.20
2018-05-10T05:44:21.162Z,20.20
2018-05-10T05:44:58.484Z,20.20
2018-05-10T05:45:36.437Z,20.20
2018-05-10T05:46:13.748Z,20.20
2018-05-10T05:46:51.140Z,20.30
2018-05-10T05:47:29.307Z,20.30
2018-05-10T05:48:06.541Z,20.20
2018-05-10T05:48:43.785Z,20.20
2018-05-10T05:49:22.043Z,20.20
2018-05-10T05:49:59.276Z,20.20
2018-05-10T05:50:36.536Z,20.20
2018-05-10T05:51:14.783Z,20.30
2018-05-10T05:51:51.853Z,20.30
2018-05-10T05:52:29.321Z,20.30
2018-05-10T05:53:07.503Z,20.20
2018-05-10T05:53:44.904Z,20.20
2018-05-10T05:54:22.312Z,20.30
2018-05-10T05:54:59.505Z,20.30
2018-05-10T05:55:36.800Z,20.30
2018-05-10T05:56:14.162Z,20.30
2018-05-10T05:56:52.289Z,20.20
2018-05-10T05:57:29.630Z,20.20
2018-05-10T05:58:07.015Z,20.10
2018-05-10T05:58:44.236Z,20.10
2018-05-10T05:59:22.383Z,20.00
2018-05-10T05:59:59.846Z,20.00
2018-05-10T06:00:37.877Z,19.90
2018-05-10T06:01:15.881Z,19.90
2018-05-10T06:01:53.960Z,19.90
2018-05-10T06:02:31.387Z,19.90
2018-05-10T06:03:09.594Z,19.90
2018-05-10T06:03:46.976Z,19.80
2018-05-10T06:04:24.357Z,19.80
2018-05-10T06:05:01.853Z,19.80
2018-05-10T06:05:39.107Z,19.70
2018-05-10T06:06:16.600Z,19.70
2018-05-10T06:06:53.967Z,19.70
2018-05-10T06:07:31.250Z,19.70
2018-05-10T06:08:08.497Z,19.70
2018-05-10T06:08:46.746Z,19.80
2018-05-10T06:09:24.090Z,19.80
2018-05-10T06:10:02.217Z,19.80
2018-05-10T06:10:39.548Z,19.80
2018-05-10T06:11:17.792Z,19.80
2018-05-10T06:11:55.165Z,19.80
2018-05-10T06:12:32.426Z,19.90
2018-05-10T06:13:09.840Z,19.80
2018-05-10T06:13:47.802Z,19.80
2018-05-10T06:14:25.175Z,19.80
2018-05-10T06:15:02.545Z,19.80
2018-05-10T06:15:40.660Z,20.00
2018-05-10T06:16:17.780Z,20.00
2018-05-10T06:16:55.088Z,19.90
2018-05-10T06:17:33.288Z,20.00
2018-05-10T06:18:11.490Z,20.00
2018-05-10T06:18:48.849Z,20.00
2018-05-10T06:19:26.190Z,20.00
2018-05-10T06:20:04.238Z,20.10
2018-05-10T06:20:41.574Z,20.10
2018-05-10T06:21:18.851Z,20.10
2018-05-10T06:21:56.251Z,20.10
2018-05-10T06:22:33.707Z,20.00
2018-05-10T06:23:11.708Z,20.00
2018-05-10T06:23:49.914Z,20.00
2018-05-10T06:24:27.321Z,20.00
2018-05-10T06:25:05.590Z,20.00
2018-05-10T06:25:42.843Z,20.00
2018-05-10T06:26:20.267Z,20.00
2018-05-10T06:26:58.483Z,19.90
2018-05-10T06:27:36.432Z,19.90
2018-05-10T06:28:13.817Z,19.90
2018-05-10T06:28:51.867Z,19.90
2018-05-10T06:29:29.127Z,19.90
2018-05-10T06:30:07.034Z,19.90
2018-05-10T06:30:44.450Z,19.90
2018-05-10T06:31:21.970Z,19.90
2018-05-10T06:31:59.184Z,19.90
2018-05-10T06:32:37.324Z,19.90
2018-05-10T06:33:14.467Z,19.80
2018-05-10T06:33:51.902Z,19.90
2018-05-10T06:34:29.062Z,19.90
2018-05-10T06:35:06.440Z,19.90
2018-05-10T06:35:44.478Z,20.00
2018-05-10T06:36:21.822Z,20.00
2018-05-10T06:36:59.142Z,20.10
2018-05-10T06:37:36.353Z,20.10
2018-05-10T06:38:14.491Z,20.20
2018-05-10T06:38:51.943Z,20.20
2018-05-10T06:39:30.154Z,20.20
2018-05-10T06:40:07.516Z,20.20
2018-05-10T06:40:45.741Z,20.30
2018-05-10T06:41:23.921Z,20.20
2018-05-10T06:42:01.269Z,20.20
2018-05-10T06:42:38.613Z,20.10
2018-05-10T06:43:16.814Z,20.00
2018-05-10T06:43:54.914Z,20.00
2018-05-10T06:44:32.890Z,19.90
2018-05-10T06:45:11.114Z,19.90
2018-05-10T06:45:48.425Z,19.90
2018-05-10T06:46:25.888Z,19.90
2018-05-10T06:47:03.894Z,19.80
2018-05-10T06:47:41.300Z,19.80
2018-05-10T06:48:18.719Z,19.80
2018-05-10T06:48:56.091Z,19.70
2018-05-10T06:49:33.494Z,19.80
2018-05-10T06:50:11.402Z,19.80
2018-05-10T06:50:48.832Z,19.80
2018-05-10T06:51:26.120Z,19.90
2018-05-10T06:52:04.276Z,20.00
2018-05-10T06:52:42.451Z,20.00
2018-05-10T06:53:19.892Z,20.00
2018-05-10T06:53:57.343Z,20.00
2018-05-10T06:54:34.763Z,20.00
2018-05-10T06:55:12.859Z,20.10
2018-05-10T06:55:51.083Z,20.10
2018-05-10T06:56:29.260Z,20.20
2018-05-10T06:57:06.470Z,20.10
2018-05-10T06:57:43.659Z,20.20
2018-05-10T06:58:21.089Z,20.20
2018-05-10T06:58:58.552Z,20.20
2018-05-10T06:59:36.659Z,20.30
2018-05-10T07:00:14.659Z,20.30
2018-05-10T07:00:52.024Z,20.30
2018-05-10T07:01:29.444Z,20.30
2018-05-10T07:02:06.722Z,20.30
2018-05-10T07:02:44.873Z,20.30
2018-05-10T07:03:22.430Z,20.30
2018-05-10T07:03:59.756Z,20.30
2018-05-10T07:04:37.130Z,20.30
2018-05-10T07:05:14.270Z,20.30
2018-05-10T07:05:51.713Z,20.30
2018-05-10T07:06:29.952Z,20.40
2018-05-10T07:07:07.368Z,20.30
2018-05-10T07:07:44.712Z,20.40
2018-05-10T07:08:22.982Z,20.40
2018-05-10T07:09:01.002Z,20.40
2018-05-10T07:09:38.505Z,20.40
2018-05-10T07:10:15.627Z,20.40
2018-05-10T07:10:53.047Z,20.40
2018-05-10T07:11:31.217Z,20.40
2018-05-10T07:12:09.426Z,20.40
2018-05-10T07:12:46.751Z,20.40
2018-05-10T07:13:24.893Z,20.50
2018-05-10T07:14:02.278Z,20.50
2018-05-10T07:14:39.566Z,20.50
2018-05-10T07:15:16.946Z,20.50
2018-05-10T07:15:55.147Z,20.50
2018-05-10T07:16:32.377Z,20.60
2018-05-10T07:17:09.831Z,20.60
2018-05-10T07:17:47.191Z,20.60
2018-05-10T07:18:25.302Z,20.50
2018-05-10T07:19:03.648Z,20.60
2018-05-10T07:19:41.701Z,20.60
2018-05-10T07:20:19.029Z,20.60
2018-05-10T07:20:56.429Z,20.60
2018-05-10T07:21:34.579Z,20.60
2018-05-10T07:22:12.650Z,20.60
2018-05-10T07:22:50.020Z,20.60
2018-05-10T07:23:27.227Z,20.70
2018-05-10T07:24:05.499Z,20.60
2018-05-10T07:24:42.676Z,20.60
2018-05-10T07:25:20.742Z,20.60
2018-05-10T07:25:57.857Z,20.70
2018-05-10T07:26:35.315Z,20.70
2018-05-10T07:27:12.715Z,20.70
2018-05-10T07:27:49.986Z,20.70
2018-05-10T07:28:27.963Z,20.70
2018-05-10T07:29:05.233Z,20.70
2018-05-10T07:29:42.661Z,20.70
2018-05-10T07:30:19.955Z,20.70
2018-05-10T07:30:57.457Z,20.70
2018-05-10T07:31:34.818Z,20.70
2018-05-10T07:32:13.060Z,20.70
2018-05-10T07:32:50.402Z,20.70
2018-05-10T07:33:27.695Z,20.70
2018-05-10T07:34:04.971Z,20.60
2018-05-10T07:34:42.446Z,20.50
2018-05-10T07:35:20.662Z,20.40
2018-05-10T07:35:58.020Z,20.40
2018-05-10T07:36:35.259Z,20.50
2018-05-10T07:37:12.686Z,20.50
2018-05-10T07:37:49.934Z,20.60
2018-05-10T07:38:28.012Z,20.50
2018-05-10T07:39:05.389Z,20.50
2018-05-10T07:39:42.831Z,20.50
2018-05-10T07:40:19.970Z,20.50
2018-05-10T07:40:57.226Z,20.50
2018-05-10T07:41:34.628Z,20.40
2018-05-10T07:42:12.038Z,20.50
2018-05-10T07:42:49.465Z,20.50
2018-05-10T07:43:26.857Z,20.40
2018-05-10T07:44:04.092Z,20.40
2018-05-10T07:44:41.488Z,20.30
2018-05-10T07:45:18.856Z,20.30
2018-05-10T07:45:57.051Z,20.30
2018-05-10T07:46:34.552Z,20.30
2018-05-10T07:47:12.673Z,20.40
2018-05-10T07:47:50.610Z,20.40
2018-05-10T07:48:28.834Z,20.40
2018-05-10T07:49:06.173Z,20.40
2018-05-10T07:49:43.334Z,20.30
2018-05-10T07:50:20.647Z,20.30
2018-05-10T07:50:58.753Z,20.20
2018-05-10T07:51:35.887Z,20.20
2018-05-10T07:52:13.370Z,20.20
2018-05-10T07:52:50.786Z,20.10
2018-05-10T07:53:28.748Z,20.20
2018-05-10T07:54:06.128Z,20.20
2018-05-10T07:54:43.288Z,20.20
2018-05-10T07:55:21.495Z,20.20
2018-05-10T07:55:58.918Z,20.20
2018-05-10T07:56:36.323Z,20.30
2018-05-10T07:57:14.345Z,20.30
2018-05-10T07:57:52.542Z,20.30
2018-05-10T07:58:29.843Z,20.30
2018-05-10T07:59:07.071Z,20.30
2018-05-10T07:59:44.223Z,20.30
2018-05-10T08:00:21.709Z,20.30
2018-05-10T08:00:59.046Z,20.30
2018-05-10T08:01:37.198Z,20.30
2018-05-10T08:02:14.585Z,20.20
2018-05-10T08:02:52.065Z,20.30
2018-05-10T08:03:29.428Z,20.30
2018-05-10T08:04:06.774Z,20.30
2018-05-10T08:04:44.157Z,20.40